createdAt,value
2023-05-14T00:01:41.828Z,26.60
2023-05-14T00:04:09.430Z,28.58
2023-05-14T00:06:36.954Z,27.80
2023-05-14T00:09:04.588Z,27.65
2023-05-14T00:11:32.100Z,29.05
2023-05-14T00:13:59.608Z,26.55
2023-05-14T00:16:27.228Z,27.20
2023-05-14T00:18:55.292Z,28.00
2023-05-14T00:21:22.752Z,27.98
2023-05-14T00:23:50.309Z,28.60
2023-05-14T00:26:17.796Z,29.08
2023-05-14T00:28:45.991Z,28.48
2023-05-14T00:31:14.725Z,28.02
2023-05-14T00:33:42.215Z,28.52
2023-05-14T00:36:09.785Z,28.63
2023-05-14T00:38:37.529Z,28.95
2023-05-14T00:41:05.114Z,28.08
2023-05-14T00:43:33.286Z,28.20
2023-05-14T00:46:01.047Z,29.15
2023-05-14T00:48:29.310Z,28.85
2023-05-14T00:50:56.842Z,29.67
2023-05-14T00:53:24.959Z,29.88
2023-05-14T00:55:53.013Z,29.70
2023-05-14T00:58:21.627Z,29.38
2023-05-14T01:00:49.262Z,28.58
2023-05-14T01:03:17.299Z,29.20
2023-05-14T01:06:09.808Z,28.42
2023-05-14T01:09:01.962Z,29.33
2023-05-14T01:11:42.554Z,30.88
2023-05-14T01:14:25.711Z,31.85
2023-05-14T01:16:58.043Z,28.85
2023-05-14T01:19:45.350Z,30.38
2023-05-14T01:22:13.306Z,28.48
2023-05-14T01:24:41.127Z,29.02
2023-05-14T01:27:40.810Z,29.73
2023-05-14T01:30:32.070Z,30.85
2023-05-14T01:33:06.294Z,32.35
2023-05-14T01:35:34.022Z,31.13
2023-05-14T01:38:04.704Z,31.52
2023-05-14T01:40:34.060Z,29.98
2023-05-14T01:43:02.297Z,31.27
2023-05-14T01:45:31.135Z,30.38
2023-05-14T01:47:59.229Z,28.52
2023-05-14T01:50:26.706Z,30.13
2023-05-14T01:52:56.579Z,30.85
2023-05-14T01:55:25.088Z,32.30
2023-05-14T01:57:53.394Z,30.33
2023-05-14T02:00:24.059Z,30.27
2023-05-14T02:02:51.979Z,29.75
2023-05-14T02:05:19.835Z,31.65
2023-05-14T02:07:47.820Z,31.05
2023-05-14T02:10:17.066Z,32.08
2023-05-14T02:12:50.055Z,33.67
2023-05-14T02:15:17.664Z,31.30
2023-05-14T02:17:45.709Z,31.17
2023-05-14T02:20:13.613Z,33.97
2023-05-14T02:22:45.723Z,33.53
2023-05-14T02:25:13.375Z,35.50
2023-05-14T02:27:44.893Z,33.97
2023-05-14T02:30:14.046Z,31.40
2023-05-14T02:32:41.800Z,32.55
2023-05-14T02:35:09.992Z,34.00
2023-05-14T02:37:38.211Z,32.92
2023-05-14T02:40:07.286Z,33.15
2023-05-14T02:42:35.733Z,35.55
2023-05-14T02:45:03.540Z,31.58
2023-05-14T02:47:31.521Z,33.45
2023-05-14T02:49:59.079Z,34.47
2023-05-14T02:52:27.022Z,33.20
2023-05-14T02:54:55.028Z,33.88
2023-05-14T02:57:22.456Z,35.25
2023-05-14T02:59:50.009Z,34.25
2023-05-14T03:02:17.972Z,34.17
2023-05-14T03:04:46.727Z,35.83
2023-05-14T03:07:14.307Z,35.22
2023-05-14T03:09:41.951Z,35.95
2023-05-14T03:12:09.552Z,36.33
2023-05-14T03:14:37.488Z,37.53
2023-05-14T03:17:05.332Z,35.95
2023-05-14T03:19:32.919Z,38.28
2023-05-14T03:22:00.635Z,38.78
2023-05-14T03:24:28.606Z,38.67
2023-05-14T03:26:56.023Z,38.42
2023-05-14T03:29:23.573Z,41.00
2023-05-14T03:31:51.311Z,40.05
2023-05-14T03:34:19.194Z,40.00
2023-05-14T03:36:46.641Z,40.58
2023-05-14T03:39:19.594Z,41.13
2023-05-14T03:41:47.623Z,38.60
2023-05-14T03:44:15.658Z,41.40
2023-05-14T03:46:43.217Z,41.00
2023-05-14T03:49:11.176Z,41.92
2023-05-14T03:51:38.790Z,39.35
2023-05-14T03:54:07.246Z,40.65
2023-05-14T03:56:34.725Z,40.85
2023-05-14T03:59:02.238Z,42.30
2023-05-14T04:01:29.780Z,42.10
2023-05-14T04:03:58.886Z,41.13
2023-05-14T04:06:26.957Z,42.25
2023-05-14T04:08:55.554Z,41.95
2023-05-14T04:11:23.125Z,40.85
2023-05-14T04:13:51.022Z,41.35
2023-05-14T04:16:18.898Z,39.67
2023-05-14T04:18:46.865Z,40.50
2023-05-14T04:21:15.820Z,40.28
2023-05-14T04:23:43.314Z,38.50
2023-05-14T04:26:11.306Z,38.67
2023-05-14T04:28:39.141Z,36.78
2023-05-14T04:31:06.542Z,36.88
2023-05-14T04:33:34.079Z,38.13
2023-05-14T04:36:02.051Z,35.90
2023-05-14T04:38:30.077Z,36.65
2023-05-14T04:40:58.391Z,33.72
2023-05-14T04:43:25.936Z,35.38
2023-05-14T04:45:53.541Z,34.08
2023-05-14T04:48:21.726Z,36.50
2023-05-14T04:50:49.353Z,34.90
2023-05-14T04:53:16.892Z,34.92
2023-05-14T04:55:44.485Z,37.00
2023-05-14T04:58:12.004Z,36.15
2023-05-14T05:00:40.198Z,36.58
2023-05-14T05:03:08.877Z,35.40
2023-05-14T05:05:36.881Z,37.35
2023-05-14T05:08:04.576Z,37.80
2023-05-14T05:10:32.203Z,35.97
2023-05-14T05:13:00.282Z,36.83
2023-05-14T05:15:27.804Z,35.03
2023-05-14T05:17:55.437Z,37.08
2023-05-14T05:20:23.436Z,35.25
2023-05-14T05:22:51.157Z,35.08
2023-05-14T05:25:18.845Z,37.05
2023-05-14T05:27:46.339Z,37.65
2023-05-14T05:30:13.988Z,35.00
2023-05-14T05:32:41.594Z,35.17
2023-05-14T05:35:09.665Z,34.78
2023-05-14T05:37:37.251Z,37.88
2023-05-14T05:40:06.259Z,37.35
2023-05-14T05:42:33.644Z,34.85
2023-05-14T05:45:01.235Z,34.45
2023-05-14T05:47:28.968Z,34.35
2023-05-14T05:49:56.955Z,34.95
2023-05-14T05:52:25.203Z,35.20
2023-05-14T05:54:52.645Z,34.90
2023-05-14T05:57:21.868Z,34.90
2023-05-14T05:59:49.486Z,34.78
2023-05-14T06:02:17.465Z,35.03
2023-05-14T06:04:45.225Z,34.78
2023-05-14T06:07:13.005Z,33.13
2023-05-14T06:09:40.560Z,32.00
2023-05-14T06:12:08.534Z,35.72
2023-05-14T06:14:36.630Z,32.03
2023-05-14T06:17:04.363Z,33.00
2023-05-14T06:19:31.912Z,33.28
2023-05-14T06:21:59.464Z,32.70
2023-05-14T06:24:27.017Z,33.28
2023-05-14T06:26:54.569Z,33.10
2023-05-14T06:29:22.539Z,32.05
2023-05-14T06:31:50.468Z,29.58
2023-05-14T06:34:17.996Z,34.00
2023-05-14T06:36:45.672Z,31.30
2023-05-14T06:39:13.389Z,31.08
2023-05-14T06:41:40.892Z,31.45
2023-05-14T06:44:13.033Z,31.45
2023-05-14T06:46:40.571Z,31.08
2023-05-14T06:49:08.166Z,29.80
2023-05-14T06:51:35.862Z,30.58
2023-05-14T06:54:03.878Z,30.73
2023-05-14T06:56:33.786Z,29.60
2023-05-14T06:59:01.631Z,30.25
2023-05-14T07:01:29.356Z,28.95
2023-05-14T07:03:57.096Z,28.48
2023-05-14T07:06:24.700Z,29.00
2023-05-14T07:08:53.356Z,28.58
2023-05-14T07:11:22.116Z,27.17
2023-05-14T07:13:49.662Z,27.52
2023-05-14T07:16:17.452Z,27.70
2023-05-14T07:18:46.110Z,27.13
2023-05-14T07:21:14.379Z,26.63
2023-05-14T07:23:41.952Z,26.10
2023-05-14T07:26:09.604Z,27.63
2023-05-14T07:28:37.186Z,25.08
2023-05-14T07:31:09.266Z,28.05
2023-05-14T07:33:38.259Z,24.58
2023-05-14T07:36:07.372Z,25.83
2023-05-14T07:38:35.628Z,25.27
2023-05-14T07:41:03.150Z,24.33
2023-05-14T07:43:31.105Z,24.42
2023-05-14T07:45:58.691Z,23.27
2023-05-14T07:48:26.425Z,23.98
2023-05-14T07:50:54.007Z,22.52
2023-05-14T07:53:22.106Z,22.60
2023-05-14T07:55:49.997Z,23.23
2023-05-14T07:58:17.749Z,23.70
2023-05-14T08:00:45.447Z,21.35
2023-05-14T08:03:14.320Z,22.17
2023-05-14T08:05:42.631Z,20.73
2023-05-14T08:08:10.970Z,22.25
2023-05-14T08:10:38.785Z,21.80
2023-05-14T08:13:06.390Z,17.25
2023-05-14T08:15:33.965Z,14.88
2023-05-14T08:18:03.840Z,14.52
2023-05-14T08:20:31.520Z,15.55
2023-05-14T08:23:01.592Z,16.42
2023-05-14T08:25:29.872Z,16.98
2023-05-14T08:27:59.809Z,15.70
2023-05-14T08:30:28.302Z,16.35
2023-05-14T08:32:56.458Z,16.83
2023-05-14T08:35:27.068Z,16.08
2023-05-14T08:37:54.873Z,16.30
2023-05-14T08:40:24.762Z,16.48
2023-05-14T08:42:56.842Z,17.10
2023-05-14T08:45:30.835Z,16.30
2023-05-14T08:47:59.615Z,17.45
2023-05-14T08:50:36.029Z,16.17
2023-05-14T08:53:03.756Z,16.50
2023-05-14T08:55:33.445Z,17.67
2023-05-14T08:58:01.536Z,16.45
2023-05-14T09:00:29.521Z,16.15
2023-05-14T09:02:57.822Z,17.60
2023-05-14T09:05:25.817Z,17.17
2023-05-14T09:07:53.476Z,16.35
2023-05-14T09:10:21.597Z,15.27
2023-05-14T09:12:49.316Z,15.23
2023-05-14T09:15:17.016Z,14.48
2023-05-14T09:17:45.052Z,15.18
2023-05-14T09:20:13.075Z,15.70
2023-05-14T09:22:40.832Z,14.73
2023-05-14T09:25:11.990Z,14.48
2023-05-14T09:27:39.703Z,12.38
2023-05-14T09:30:12.059Z,13.18
2023-05-14T09:32:43.811Z,13.07
2023-05-14T09:35:22.680Z,12.75
2023-05-14T09:37:52.518Z,13.88
2023-05-14T09:40:22.378Z,12.63
2023-05-14T09:42:50.259Z,11.73
2023-05-14T09:45:18.297Z,12.63
2023-05-14T09:47:46.100Z,12.60
2023-05-14T09:50:13.936Z,12.93
2023-05-14T09:52:42.067Z,12.80
2023-05-14T09:55:10.000Z,13.55
2023-05-14T09:57:37.727Z,10.38
2023-05-14T10:00:06.828Z,7.65
2023-05-14T10:02:38.409Z,7.88
2023-05-14T10:05:07.861Z,7.50
2023-05-14T10:07:46.637Z,7.70
2023-05-14T10:10:18.725Z,8.73
2023-05-14T10:12:53.483Z,7.45
2023-05-14T10:15:29.966Z,7.47
2023-05-14T10:18:03.531Z,7.22
2023-05-14T10:20:31.460Z,7.18
2023-05-14T10:22:59.004Z,5.97
2023-05-14T10:25:27.261Z,6.97
2023-05-14T10:27:58.435Z,6.47
2023-05-14T10:30:26.295Z,6.47
2023-05-14T10:33:11.978Z,6.18
2023-05-14T10:35:52.742Z,7.25
2023-05-14T10:38:27.154Z,6.47
2023-05-14T10:40:58.047Z,5.97
2023-05-14T10:43:31.133Z,6.00
2023-05-14T10:45:59.927Z,3.90
2023-05-14T10:48:27.511Z,3.63
2023-05-14T10:50:56.278Z,4.28
2023-05-14T10:53:34.679Z,5.72
2023-05-14T10:56:13.633Z,5.68
2023-05-14T10:58:44.039Z,5.53
2023-05-14T11:01:13.689Z,4.45
2023-05-14T11:03:43.826Z,5.00
2023-05-14T11:06:13.196Z,5.90
2023-05-14T11:08:41.642Z,5.43
2023-05-14T11:11:10.037Z,5.32
2023-05-14T11:13:37.993Z,6.63
2023-05-14T11:16:18.999Z,5.72
2023-05-14T11:19:00.562Z,4.47
2023-05-14T11:21:28.157Z,3.50
2023-05-14T11:23:57.098Z,3.28
2023-05-14T11:26:24.646Z,3.28
2023-05-14T11:28:52.441Z,4.00
2023-05-14T11:31:21.533Z,4.45
2023-05-14T11:33:49.113Z,4.75
2023-05-14T11:36:16.814Z,4.60
2023-05-14T11:38:49.020Z,5.00
2023-05-14T11:41:16.781Z,5.30
2023-05-14T11:43:44.438Z,5.95
2023-05-14T11:46:18.153Z,5.50
2023-05-14T11:48:46.127Z,5.43
2023-05-14T11:51:13.666Z,5.15
2023-05-14T11:53:41.242Z,3.83
2023-05-14T11:56:10.000Z,3.65
2023-05-14T11:58:37.749Z,3.38
2023-05-14T12:01:05.690Z,2.85
2023-05-14T12:03:33.795Z,3.33
2023-05-14T12:06:06.471Z,3.90
2023-05-14T12:08:34.182Z,3.40
2023-05-14T12:11:02.089Z,2.90
2023-05-14T12:13:31.344Z,2.25
2023-05-14T12:16:02.961Z,2.78
2023-05-14T12:18:32.324Z,2.33
2023-05-14T12:21:04.462Z,1.80
2023-05-14T12:23:32.817Z,2.30
2023-05-14T12:26:08.943Z,1.67
2023-05-14T12:28:43.498Z,1.80
2023-05-14T12:31:11.321Z,1.38
2023-05-14T12:33:38.919Z,1.60
2023-05-14T12:38:37.716Z,1.25
2023-05-14T12:41:05.275Z,1.42
2023-05-14T12:43:32.800Z,1.15
2023-05-14T12:46:00.400Z,1.20
2023-05-14T12:48:28.060Z,1.40
2023-05-14T12:50:55.607Z,1.50
2023-05-14T12:53:23.138Z,1.40
2023-05-14T12:55:50.784Z,1.40
2023-05-14T12:58:18.377Z,1.27
2023-05-14T13:00:45.944Z,1.10
2023-05-14T13:03:13.549Z,1.30
2023-05-14T13:05:41.451Z,1.20
2023-05-14T13:08:09.818Z,1.50
2023-05-14T13:10:37.334Z,1.58
2023-05-14T13:13:04.940Z,1.30
2023-05-14T13:15:33.676Z,1.42
2023-05-14T13:18:01.332Z,1.20
2023-05-14T13:20:30.978Z,1.40
2023-05-14T13:22:58.521Z,1.38
2023-05-14T13:25:26.620Z,1.50
2023-05-14T13:27:54.289Z,1.40
2023-05-14T13:30:21.896Z,1.40
2023-05-14T13:32:49.489Z,1.75
2023-05-14T13:35:17.352Z,1.40
2023-05-14T13:37:45.094Z,1.50
2023-05-14T13:40:12.996Z,1.58
2023-05-14T13:42:40.591Z,1.38
2023-05-14T13:45:09.116Z,1.80
2023-05-14T13:47:36.676Z,1.55
2023-05-14T13:50:04.530Z,1.63
2023-05-14T13:52:33.088Z,1.65
2023-05-14T13:55:00.726Z,1.30
2023-05-14T13:57:28.277Z,1.70
2023-05-14T13:59:56.049Z,1.98
2023-05-14T14:02:23.670Z,1.90
2023-05-14T14:04:51.315Z,1.83
2023-05-14T14:07:18.956Z,1.80
2023-05-14T14:09:46.487Z,1.98
2023-05-14T14:12:14.072Z,1.98
2023-05-14T14:14:41.670Z,1.80
2023-05-14T14:17:09.286Z,2.17
2023-05-14T14:19:36.845Z,1.70
2023-05-14T14:22:04.979Z,1.75
2023-05-14T14:24:32.632Z,1.92
2023-05-14T14:27:02.274Z,1.90
2023-05-14T14:29:31.147Z,1.40
2023-05-14T14:31:59.676Z,1.70
2023-05-14T14:34:27.227Z,1.77
2023-05-14T14:36:54.742Z,1.73
2023-05-14T14:39:24.575Z,1.92
2023-05-14T14:41:52.543Z,1.80
2023-05-14T14:44:19.961Z,1.45
2023-05-14T14:46:47.652Z,1.50
2023-05-14T14:49:15.126Z,1.67
2023-05-14T14:51:42.784Z,1.50
2023-05-14T14:54:10.351Z,1.38
2023-05-14T14:56:37.964Z,1.20
2023-05-14T14:59:05.484Z,1.35
2023-05-14T15:01:33.282Z,1.48
2023-05-14T15:04:00.808Z,1.33
2023-05-14T15:06:28.330Z,1.90
2023-05-14T15:08:56.119Z,1.83
2023-05-14T15:11:23.622Z,1.70
2023-05-14T15:13:51.116Z,1.23
2023-05-14T15:16:18.802Z,1.20
2023-05-14T15:18:46.637Z,1.50
2023-05-14T15:21:14.196Z,1.85
2023-05-14T15:23:41.718Z,1.17
2023-05-14T15:26:09.274Z,1.50
2023-05-14T15:28:36.863Z,1.48
2023-05-14T15:31:05.611Z,1.27
2023-05-14T15:33:34.044Z,1.27
2023-05-14T15:36:01.585Z,1.38
2023-05-14T15:38:29.271Z,1.85
2023-05-14T15:40:56.839Z,1.30
2023-05-14T15:43:24.456Z,1.35
2023-05-14T15:45:52.048Z,1.70
2023-05-14T15:48:19.570Z,2.05
2023-05-14T15:50:49.645Z,1.70
2023-05-14T15:53:17.920Z,2.75
2023-05-14T15:55:47.647Z,1.90
2023-05-14T15:58:16.689Z,1.60
2023-05-14T16:00:44.267Z,1.38
2023-05-14T16:03:12.390Z,1.50
2023-05-14T16:05:40.138Z,1.63
2023-05-14T16:08:07.858Z,1.48
2023-05-14T16:10:35.752Z,1.73
2023-05-14T16:13:03.327Z,1.58
2023-05-14T16:15:30.943Z,1.92
2023-05-14T16:17:58.515Z,1.83
2023-05-14T16:20:26.159Z,1.80
2023-05-14T16:22:53.800Z,1.98
2023-05-14T16:25:21.312Z,1.73
2023-05-14T16:27:49.077Z,2.00
2023-05-14T16:30:16.747Z,1.67
2023-05-14T16:32:46.680Z,1.17
2023-05-14T16:35:14.409Z,1.35
2023-05-14T16:37:42.075Z,1.40
2023-05-14T16:40:11.715Z,1.73
2023-05-14T16:42:39.873Z,2.67
2023-05-14T16:45:07.922Z,1.55
2023-05-14T16:47:35.843Z,1.38
2023-05-14T16:50:03.669Z,1.60
2023-05-14T16:52:31.254Z,1.33
2023-05-14T16:54:58.926Z,1.80
2023-05-14T16:57:26.601Z,1.85
2023-05-14T16:59:54.182Z,1.27
2023-05-14T17:02:21.775Z,1.60
2023-05-14T17:04:49.363Z,3.47
2023-05-14T17:07:17.076Z,1.98
2023-05-14T17:09:44.656Z,1.85
2023-05-14T17:12:13.597Z,1.67
2023-05-14T17:14:41.148Z,1.90
2023-05-14T17:17:08.690Z,1.52
2023-05-14T17:19:36.195Z,1.73
2023-05-14T17:22:06.065Z,2.38
2023-05-14T17:24:35.136Z,2.50
2023-05-14T17:27:02.756Z,2.05
2023-05-14T17:29:30.678Z,1.80
2023-05-14T17:31:58.498Z,1.80
2023-05-14T17:34:26.075Z,2.60
2023-05-14T17:36:53.665Z,2.33
2023-05-14T17:39:21.854Z,2.30
2023-05-14T17:41:49.228Z,2.45
2023-05-14T17:44:16.773Z,2.50
2023-05-14T17:46:45.194Z,3.85
2023-05-14T17:49:13.225Z,3.10
2023-05-14T17:51:40.985Z,2.58
2023-05-14T17:54:08.469Z,2.63
2023-05-14T17:56:36.464Z,2.95
2023-05-14T17:59:04.031Z,2.88
2023-05-14T18:01:31.697Z,2.80
2023-05-14T18:03:59.369Z,2.83
2023-05-14T18:06:27.083Z,2.92
2023-05-14T18:08:54.983Z,2.90
2023-05-14T18:11:22.372Z,2.92
2023-05-14T18:13:50.065Z,2.85
2023-05-14T18:16:17.689Z,2.92
2023-05-14T18:18:45.281Z,2.55
2023-05-14T18:21:12.943Z,2.47
2023-05-14T18:23:40.834Z,2.85
2023-05-14T18:26:08.355Z,2.97
2023-05-14T18:28:37.094Z,2.28
2023-05-14T18:31:05.102Z,2.60
2023-05-14T18:33:33.094Z,2.90
2023-05-14T18:36:01.685Z,2.30
2023-05-14T18:38:29.573Z,2.58
2023-05-14T18:40:57.322Z,2.67
2023-05-14T18:43:25.302Z,2.80
2023-05-14T18:45:53.154Z,2.45
2023-05-14T18:48:21.062Z,3.17
2023-05-14T18:50:48.912Z,3.22
2023-05-14T18:53:16.732Z,3.65
2023-05-14T18:55:44.166Z,3.15
2023-05-14T18:58:12.134Z,3.80
2023-05-14T19:00:40.074Z,3.95
2023-05-14T19:03:08.005Z,3.97
2023-05-14T19:05:35.564Z,4.03
2023-05-14T19:08:03.145Z,4.30
2023-05-14T19:10:31.194Z,4.93
2023-05-14T19:12:59.037Z,5.50
2023-05-14T19:15:27.156Z,6.05
2023-05-14T19:17:55.054Z,6.45
2023-05-14T19:20:23.039Z,5.22
2023-05-14T19:22:50.839Z,5.35
2023-05-14T19:25:18.690Z,6.22
2023-05-14T19:27:50.588Z,5.38
2023-05-14T19:30:19.925Z,4.72
2023-05-14T19:32:47.623Z,4.72
2023-05-14T19:35:15.664Z,5.50
2023-05-14T19:37:43.213Z,5.63
2023-05-14T19:40:11.245Z,8.20
2023-05-14T19:42:38.747Z,7.38
2023-05-14T19:45:06.778Z,8.77
2023-05-14T19:47:34.451Z,7.55
2023-05-14T19:50:02.031Z,7.88
2023-05-14T19:52:31.731Z,7.15
2023-05-14T19:54:59.299Z,6.78
2023-05-14T19:57:27.028Z,6.78
2023-05-14T19:59:54.914Z,6.50
2023-05-14T20:02:22.644Z,4.97
2023-05-14T20:04:50.233Z,4.80
2023-05-14T20:07:18.299Z,3.67
2023-05-14T20:09:46.625Z,4.40
2023-05-14T20:12:14.363Z,3.03
2023-05-14T20:14:41.954Z,2.70
2023-05-14T20:17:09.650Z,2.38
2023-05-14T20:19:37.202Z,2.80
2023-05-14T20:22:04.921Z,1.70
2023-05-14T20:24:32.557Z,1.85
2023-05-14T20:27:00.304Z,1.98
2023-05-14T20:29:28.263Z,2.30
2023-05-14T20:31:55.758Z,2.15
2023-05-14T20:34:23.333Z,2.55
2023-05-14T20:36:52.005Z,2.85
2023-05-14T20:39:19.691Z,3.75
2023-05-14T20:41:47.283Z,4.78
2023-05-14T20:44:15.200Z,5.05
2023-05-14T20:46:43.035Z,4.88
2023-05-14T20:49:11.206Z,5.15
2023-05-14T20:51:38.606Z,5.60
2023-05-14T20:54:06.605Z,4.53
2023-05-14T20:56:34.243Z,4.70
2023-05-14T20:59:01.848Z,4.40
2023-05-14T21:01:29.840Z,5.03
2023-05-14T21:03:57.343Z,4.30
2023-05-14T21:06:25.686Z,4.15
2023-05-14T21:08:53.630Z,3.63
2023-05-14T21:11:23.113Z,2.80
2023-05-14T21:13:51.084Z,2.33
2023-05-14T21:16:19.966Z,2.20
2023-05-14T21:18:47.962Z,2.60
2023-05-14T21:21:15.463Z,2.50
2023-05-14T21:23:43.126Z,2.55
2023-05-14T21:26:11.441Z,1.90
2023-05-14T21:28:38.976Z,2.15
2023-05-14T21:31:07.130Z,2.03
2023-05-14T21:33:35.000Z,2.95
2023-05-14T21:36:02.903Z,3.50
2023-05-14T21:38:31.685Z,2.85
2023-05-14T21:40:59.616Z,2.90
2023-05-14T21:43:27.628Z,2.72
2023-05-14T21:45:56.011Z,3.13
2023-05-14T21:48:23.704Z,3.78
2023-05-14T21:50:51.687Z,2.15
2023-05-14T21:53:19.188Z,3.28
2023-05-14T21:55:46.739Z,3.58
2023-05-14T21:58:14.322Z,2.60
2023-05-14T22:00:41.904Z,2.60
2023-05-14T22:03:09.622Z,3.10
2023-05-14T22:05:37.267Z,3.05
2023-05-14T22:08:05.083Z,3.15
2023-05-14T22:10:33.047Z,3.13
2023-05-14T22:13:00.890Z,3.05
2023-05-14T22:15:28.722Z,3.55
2023-05-14T22:17:57.127Z,3.35
2023-05-14T22:20:25.258Z,2.70
2023-05-14T22:22:53.193Z,3.70
2023-05-14T22:25:20.997Z,3.33
2023-05-14T22:27:48.460Z,3.70
2023-05-14T22:30:16.026Z,3.55
2023-05-14T22:32:44.029Z,3.58
2023-05-14T22:35:11.673Z,3.47
2023-05-14T22:37:39.238Z,2.92
2023-05-14T22:40:07.834Z,3.35
2023-05-14T22:42:35.411Z,3.65
2023-05-14T22:45:03.078Z,3.35
2023-05-14T22:47:31.184Z,3.95
2023-05-14T22:49:59.032Z,3.92
2023-05-14T22:52:26.977Z,4.07
2023-05-14T22:54:54.556Z,4.18
2023-05-14T22:57:22.172Z,4.50
2023-05-14T22:59:49.751Z,4.45
2023-05-14T23:02:17.327Z,3.88
2023-05-14T23:04:44.945Z,4.38
2023-05-14T23:07:12.949Z,5.03
2023-05-14T23:09:40.379Z,3.90
2023-05-14T23:12:08.230Z,4.32
2023-05-14T23:14:36.165Z,3.60
2023-05-14T23:17:04.094Z,4.28
2023-05-14T23:19:31.654Z,4.57
2023-05-14T23:21:59.585Z,3.65
2023-05-14T23:24:27.151Z,3.45
2023-05-14T23:26:55.278Z,3.25
2023-05-14T23:29:23.125Z,3.28
2023-05-14T23:31:51.077Z,3.25
2023-05-14T23:34:19.081Z,4.38
2023-05-14T23:36:46.945Z,3.10
2023-05-14T23:39:14.528Z,2.47
2023-05-14T23:41:42.067Z,3.60
2023-05-14T23:44:10.097Z,3.00
2023-05-14T23:46:37.700Z,3.38
2023-05-14T23:49:05.806Z,3.33
2023-05-14T23:51:33.662Z,2.80
2023-05-14T23:54:01.611Z,3.42
2023-05-14T23:56:29.325Z,2.65
2023-05-14T23:58:57.163Z,3.33
